createdAt,value
2022-08-03T00:00:15.169Z,1.70
2022-08-03T00:03:57.025Z,1.95
2022-08-03T00:07:38.835Z,2.00
2022-08-03T00:11:20.876Z,2.40
2022-08-03T00:15:02.669Z,2.33
2022-08-03T00:18:45.098Z,2.53
2022-08-03T00:22:26.947Z,2.22
2022-08-03T00:26:08.783Z,2.08
2022-08-03T00:29:59.980Z,2.63
2022-08-03T00:33:58.244Z,2.28
2022-08-03T00:37:42.026Z,2.22
2022-08-03T00:41:23.866Z,2.00
2022-08-03T00:45:06.057Z,2.08
2022-08-03T00:48:49.056Z,1.55
2022-08-03T00:52:30.836Z,3.15
2022-08-03T00:56:16.245Z,2.20
2022-08-03T01:00:00.131Z,3.42
2022-08-03T01:03:42.245Z,2.75
2022-08-03T01:07:56.106Z,2.05
2022-08-03T01:12:00.895Z,1.92
2022-08-03T01:15:49.751Z,2.60
2022-08-03T01:20:01.966Z,1.50
2022-08-03T01:23:46.925Z,1.33
2022-08-03T01:27:39.075Z,2.30
2022-08-03T01:31:24.134Z,2.38
2022-08-03T01:35:09.733Z,2.15
2022-08-03T01:38:55.633Z,1.75
2022-08-03T01:42:37.617Z,2.53
2022-08-03T01:46:20.669Z,1.58
2022-08-03T01:50:02.640Z,2.85
2022-08-03T01:53:44.486Z,2.10
2022-08-03T01:57:26.271Z,1.83
2022-08-03T02:01:08.137Z,1.95
2022-08-03T02:04:50.033Z,1.45
2022-08-03T02:08:31.856Z,1.75
2022-08-03T02:12:13.957Z,1.50
2022-08-03T02:15:55.966Z,1.20
2022-08-03T02:19:37.773Z,1.58
2022-08-03T02:23:19.585Z,1.40
2022-08-03T02:27:01.386Z,1.75
2022-08-03T02:30:43.408Z,1.02
2022-08-03T02:34:26.589Z,1.05
2022-08-03T02:38:08.588Z,1.50
2022-08-03T02:41:52.338Z,1.30
2022-08-03T02:45:36.074Z,1.38
2022-08-03T02:49:41.205Z,1.02
2022-08-03T02:53:21.408Z,1.60
2022-08-03T02:57:03.805Z,1.55
2022-08-03T03:00:45.786Z,1.30
2022-08-03T03:04:32.991Z,1.02
2022-08-03T03:08:18.741Z,1.95
2022-08-03T03:12:03.271Z,1.77
2022-08-03T03:15:45.049Z,1.88
2022-08-03T03:19:26.823Z,1.92
2022-08-03T03:23:08.898Z,1.77
2022-08-03T03:26:50.853Z,1.27
2022-08-03T03:30:33.109Z,1.45
2022-08-03T03:34:15.166Z,2.20
2022-08-03T03:37:58.422Z,2.05
2022-08-03T03:41:40.265Z,1.77
2022-08-03T03:45:22.355Z,1.20
2022-08-03T03:49:06.036Z,1.95
2022-08-03T03:52:47.938Z,1.88
2022-08-03T03:56:29.848Z,1.85
2022-08-03T04:00:15.779Z,2.30
2022-08-03T04:03:57.622Z,1.45
2022-08-03T04:08:04.996Z,2.00
2022-08-03T04:11:54.412Z,1.27
2022-08-03T04:15:36.537Z,1.55
2022-08-03T04:19:25.434Z,1.80
2022-08-03T04:23:14.558Z,2.30
2022-08-03T04:26:57.758Z,1.52
2022-08-03T04:30:39.559Z,1.20
2022-08-03T04:34:21.347Z,1.75
2022-08-03T04:38:04.058Z,1.58
2022-08-03T04:42:08.335Z,1.50
2022-08-03T04:45:48.226Z,1.08
2022-08-03T04:49:30.571Z,1.00
2022-08-03T04:53:12.434Z,1.30
2022-08-03T04:56:54.740Z,0.98
2022-08-03T05:00:36.544Z,1.27
2022-08-03T05:04:19.588Z,1.10
2022-08-03T05:08:01.401Z,1.13
2022-08-03T05:11:45.295Z,1.15
2022-08-03T05:15:27.203Z,1.00
2022-08-03T05:19:09.006Z,1.45
2022-08-03T05:22:50.781Z,1.10
2022-08-03T05:26:32.646Z,1.17
2022-08-03T05:30:30.589Z,1.15
2022-08-03T05:34:15.502Z,1.60
2022-08-03T05:37:57.324Z,0.85
2022-08-03T05:41:39.137Z,2.03
2022-08-03T05:45:24.227Z,1.15
2022-08-03T05:49:10.051Z,1.42
2022-08-03T05:52:54.328Z,0.85
2022-08-03T05:56:36.225Z,1.35
2022-08-03T06:00:18.390Z,1.40
2022-08-03T06:04:00.768Z,0.85
2022-08-03T06:07:42.551Z,1.38
2022-08-03T06:11:25.050Z,0.65
2022-08-03T06:15:07.803Z,0.65
2022-08-03T06:18:53.433Z,1.30
2022-08-03T06:22:35.231Z,0.98
2022-08-03T06:26:16.986Z,0.98
2022-08-03T06:29:58.796Z,0.85
2022-08-03T06:34:32.154Z,1.17
2022-08-03T06:37:45.813Z,1.08
2022-08-03T06:41:27.907Z,1.00
2022-08-03T06:45:10.200Z,0.77
2022-08-03T06:48:52.343Z,1.20
2022-08-03T06:52:37.728Z,1.33
2022-08-03T06:56:20.672Z,0.80
2022-08-03T07:00:07.973Z,1.17
2022-08-03T07:03:54.764Z,1.20
2022-08-03T07:07:39.738Z,1.45
2022-08-03T07:11:21.520Z,0.77
2022-08-03T07:15:03.665Z,1.25
2022-08-03T07:18:48.500Z,1.30
2022-08-03T07:22:30.289Z,0.70
2022-08-03T07:26:12.259Z,1.33
2022-08-03T07:29:54.847Z,0.70
2022-08-03T07:33:36.644Z,0.80
2022-08-03T07:37:18.641Z,1.83
2022-08-03T07:41:00.413Z,0.80
2022-08-03T07:44:42.259Z,1.13
2022-08-03T07:48:24.137Z,0.60
2022-08-03T07:52:24.265Z,0.80
2022-08-03T07:56:11.559Z,0.63
2022-08-03T08:00:01.525Z,0.93
2022-08-03T08:03:52.608Z,1.08
2022-08-03T08:07:35.374Z,0.60
2022-08-03T08:11:17.308Z,1.27
2022-08-03T08:14:59.085Z,1.33
2022-08-03T08:18:40.870Z,0.47
2022-08-03T08:22:26.530Z,0.60
2022-08-03T08:26:12.681Z,0.50
2022-08-03T08:29:58.064Z,0.50
2022-08-03T08:37:50.906Z,0.50
2022-08-03T08:41:34.794Z,0.40
2022-08-03T08:45:16.671Z,0.40
2022-08-03T08:48:59.962Z,0.50
2022-08-03T08:52:48.673Z,0.50
2022-08-03T08:56:30.477Z,0.80
2022-08-03T09:00:15.143Z,1.25
2022-08-03T09:03:57.025Z,0.30
2022-08-03T09:07:39.425Z,0.75
2022-08-03T09:11:55.696Z,0.50
2022-08-03T09:15:32.506Z,0.60
2022-08-03T09:19:14.483Z,0.32
2022-08-03T09:23:01.042Z,1.10
2022-08-03T09:26:50.237Z,0.40
2022-08-03T09:30:34.266Z,0.60
2022-08-03T09:34:17.439Z,0.50
2022-08-03T09:38:26.170Z,0.40
2022-08-03T09:42:17.213Z,0.63
2022-08-03T09:46:07.636Z,0.60
2022-08-03T09:49:58.029Z,0.65
2022-08-03T09:53:57.106Z,0.65
2022-08-03T09:57:41.650Z,0.60
2022-08-03T10:01:35.425Z,0.52
2022-08-03T10:05:19.464Z,0.55
2022-08-03T10:09:07.219Z,0.85
2022-08-03T10:12:49.247Z,0.70
2022-08-03T10:16:35.981Z,0.63
2022-08-03T10:20:18.097Z,0.85
2022-08-03T10:24:02.298Z,0.30
2022-08-03T10:27:46.735Z,0.40
2022-08-03T10:31:33.286Z,0.30
2022-08-03T10:35:20.412Z,0.38
2022-08-03T10:39:03.175Z,0.40
2022-08-03T10:43:06.206Z,0.30
2022-08-03T10:46:48.740Z,0.20
2022-08-03T10:50:30.569Z,0.20
2022-08-03T10:54:37.530Z,0.20
2022-08-03T10:58:37.907Z,0.60
2022-08-03T11:03:01.596Z,0.98
2022-08-03T11:10:32.006Z,1.05
2022-08-03T11:14:18.993Z,1.55
2022-08-03T11:18:11.139Z,0.90
2022-08-03T11:21:54.070Z,0.88
2022-08-03T11:26:14.946Z,0.63
2022-08-03T11:30:10.559Z,2.47
2022-08-03T11:34:08.618Z,1.10
2022-08-03T11:41:46.959Z,1.45
2022-08-03T11:45:28.855Z,2.08
2022-08-03T11:49:11.329Z,2.40
2022-08-03T11:52:53.289Z,2.53
2022-08-03T11:56:48.121Z,2.80
2022-08-03T12:00:31.510Z,1.88
2022-08-03T12:04:13.301Z,1.80
2022-08-03T12:08:03.827Z,2.13
2022-08-03T12:11:54.642Z,1.40
2022-08-03T12:15:42.660Z,1.90
2022-08-03T12:19:24.450Z,1.50
2022-08-03T12:23:06.664Z,1.35
2022-08-03T12:26:58.338Z,3.63
2022-08-03T12:30:40.950Z,2.95
2022-08-03T12:34:22.807Z,3.55
2022-08-03T12:38:04.586Z,4.78
2022-08-03T12:41:46.452Z,4.20
2022-08-03T12:45:30.384Z,5.40
2022-08-03T12:49:15.829Z,4.00
2022-08-03T12:52:57.936Z,4.00
2022-08-03T12:57:15.607Z,3.47
2022-08-03T13:00:57.943Z,2.83
2022-08-03T13:04:39.831Z,3.17
2022-08-03T13:08:24.826Z,2.20
2022-08-03T13:12:11.622Z,1.67
2022-08-03T13:15:54.510Z,1.80
2022-08-03T13:19:36.865Z,1.95
2022-08-03T13:23:22.706Z,1.58
2022-08-03T13:28:03.565Z,1.13
2022-08-03T13:31:08.536Z,1.27
2022-08-03T13:34:50.401Z,1.27
2022-08-03T13:38:32.638Z,1.77
2022-08-03T13:42:15.171Z,2.13
2022-08-03T13:45:57.903Z,1.60
2022-08-03T13:49:39.892Z,1.55
2022-08-03T13:53:21.713Z,1.98
2022-08-03T13:58:11.926Z,1.38
2022-08-03T14:01:05.406Z,1.20
2022-08-03T14:04:47.302Z,1.15
2022-08-03T14:08:29.284Z,1.02
2022-08-03T14:12:11.301Z,1.25
2022-08-03T14:15:53.180Z,1.13
2022-08-03T14:19:52.699Z,1.10
2022-08-03T14:23:36.259Z,1.00
2022-08-03T14:27:18.104Z,0.88
2022-08-03T14:30:59.957Z,1.08
2022-08-03T14:34:41.741Z,0.80
2022-08-03T14:38:23.655Z,1.30
2022-08-03T14:42:05.598Z,0.73
2022-08-03T14:45:48.831Z,0.90
2022-08-03T14:50:31.051Z,0.95
2022-08-03T14:53:32.489Z,1.00
2022-08-03T14:57:14.258Z,1.02
2022-08-03T15:00:56.244Z,0.98
2022-08-03T15:04:38.070Z,0.70
2022-08-03T15:08:20.155Z,0.73
2022-08-03T15:12:01.982Z,0.70
2022-08-03T15:15:43.835Z,0.68
2022-08-03T15:20:03.860Z,0.50
2022-08-03T15:23:27.478Z,0.50
2022-08-03T15:27:09.342Z,0.73
2022-08-03T15:30:53.992Z,0.70
2022-08-03T15:34:35.812Z,0.47
2022-08-03T15:38:17.665Z,0.55
2022-08-03T15:41:59.524Z,0.47
2022-08-03T15:45:43.054Z,0.93
2022-08-03T15:49:24.850Z,0.40
2022-08-03T15:53:06.651Z,1.20
2022-08-03T15:56:48.438Z,0.85
2022-08-03T16:00:33.268Z,0.60
2022-08-03T16:04:15.941Z,0.65
2022-08-03T16:08:03.578Z,0.60
2022-08-03T16:11:46.837Z,0.68
2022-08-03T16:15:28.681Z,1.05
2022-08-03T16:19:10.480Z,0.77
2022-08-03T16:22:52.360Z,0.47
2022-08-03T16:26:34.906Z,0.57
2022-08-03T16:30:17.012Z,0.35
2022-08-03T16:33:58.913Z,1.13
2022-08-03T16:37:51.833Z,0.60
2022-08-03T16:41:54.143Z,0.50
2022-08-03T16:45:40.599Z,0.80
2022-08-03T16:49:53.712Z,0.52
2022-08-03T16:53:33.492Z,0.60
2022-08-03T16:57:56.700Z,0.90
2022-08-03T17:01:35.639Z,0.70
2022-08-03T17:05:19.594Z,0.63
2022-08-03T17:09:02.102Z,0.88
2022-08-03T17:12:45.097Z,0.88
2022-08-03T17:16:26.900Z,0.80
2022-08-03T17:20:11.295Z,0.57
2022-08-03T17:24:12.829Z,0.77
2022-08-03T17:28:49.246Z,0.90
2022-08-03T17:31:56.564Z,0.50
2022-08-03T17:35:38.730Z,1.10
2022-08-03T17:39:35.782Z,0.90
2022-08-03T17:44:13.313Z,0.93
2022-08-03T17:47:29.220Z,0.90
2022-08-03T17:51:50.091Z,0.43
2022-08-03T17:55:56.582Z,0.80
2022-08-03T18:00:01.661Z,0.65
2022-08-03T18:03:58.244Z,1.20
2022-08-03T18:07:45.322Z,0.40
2022-08-03T18:11:35.349Z,0.98
2022-08-03T18:15:21.435Z,0.85
2022-08-03T18:19:09.403Z,0.80
2022-08-03T18:22:55.474Z,0.57
2022-08-03T18:26:37.890Z,0.82
2022-08-03T18:30:20.223Z,0.63
2022-08-03T18:34:17.504Z,0.45
2022-08-03T18:38:16.642Z,0.60
2022-08-03T18:41:59.553Z,0.85
2022-08-03T18:49:56.474Z,0.68
2022-08-03T18:54:02.143Z,0.77
2022-08-03T18:58:00.883Z,1.00
2022-08-03T19:01:58.478Z,0.88
2022-08-03T19:06:13.389Z,1.17
2022-08-03T19:10:05.003Z,0.90
2022-08-03T19:17:53.033Z,1.65
2022-08-03T19:21:35.410Z,1.48
2022-08-03T19:25:17.495Z,1.80
2022-08-03T19:28:59.522Z,1.88
2022-08-03T19:32:41.488Z,1.50
2022-08-03T19:36:31.313Z,1.92
2022-08-03T19:40:13.117Z,1.83
2022-08-03T19:43:59.560Z,1.67
2022-08-03T19:47:45.093Z,1.33
2022-08-03T19:52:01.561Z,2.40
2022-08-03T19:55:41.076Z,1.60
2022-08-03T19:59:30.838Z,1.90
2022-08-03T20:03:21.913Z,1.77
2022-08-03T20:07:06.047Z,1.95
2022-08-03T20:10:51.348Z,1.70
2022-08-03T20:14:33.815Z,2.60
2022-08-03T20:18:16.775Z,1.63
2022-08-03T20:21:58.987Z,2.38
2022-08-03T20:25:48.582Z,2.15
2022-08-03T20:30:05.039Z,2.30
2022-08-03T20:33:48.382Z,2.60
2022-08-03T20:37:30.846Z,2.43
2022-08-03T20:41:13.366Z,1.92
2022-08-03T20:45:06.026Z,1.88
2022-08-03T20:48:49.020Z,1.95
2022-08-03T20:52:32.137Z,1.75
2022-08-03T20:56:14.565Z,2.58
2022-08-03T20:59:56.539Z,2.00
2022-08-03T21:03:41.007Z,1.73
2022-08-03T21:08:05.519Z,2.65
2022-08-03T21:11:46.719Z,1.80
2022-08-03T21:13:00.461Z,0.47
2022-08-03T21:13:09.042Z,1.10
2022-08-03T21:16:04.732Z,1.67
2022-08-03T21:19:33.577Z,2.42
2022-08-03T21:23:35.065Z,2.20
2022-08-03T21:27:17.139Z,1.80
2022-08-03T21:30:59.106Z,2.17
2022-08-03T21:34:41.443Z,2.65
2022-08-03T21:38:29.907Z,1.40
2022-08-03T21:42:12.920Z,1.90
2022-08-03T21:46:04.967Z,2.92
2022-08-03T21:50:05.076Z,2.05
2022-08-03T21:54:02.878Z,2.25
2022-08-03T21:57:51.727Z,2.15
2022-08-03T22:01:35.279Z,2.20
2022-08-03T22:05:18.311Z,2.05
2022-08-03T22:09:11.039Z,1.75
2022-08-03T22:12:52.823Z,2.67
2022-08-03T22:16:34.596Z,2.75
2022-08-03T22:20:16.450Z,2.20
2022-08-03T22:23:59.628Z,2.67
2022-08-03T22:27:43.320Z,2.13
2022-08-03T22:31:30.466Z,2.58
2022-08-03T22:35:27.959Z,2.88
2022-08-03T22:39:09.887Z,2.50
2022-08-03T22:42:52.341Z,2.42
2022-08-03T22:46:34.390Z,2.22
2022-08-03T22:50:31.627Z,2.20
2022-08-03T22:54:22.254Z,2.63
2022-08-03T23:01:45.782Z,2.40
2022-08-03T23:06:00.772Z,2.38
2022-08-03T23:09:31.934Z,2.65
2022-08-03T23:13:14.617Z,2.13
2022-08-03T23:16:56.786Z,2.47
2022-08-03T23:20:38.721Z,2.63
2022-08-03T23:24:29.825Z,2.30
2022-08-03T23:28:14.538Z,2.60
2022-08-03T23:31:56.624Z,2.38
2022-08-03T23:36:28.326Z,2.65
2022-08-03T23:39:59.710Z,3.90
2022-08-03T23:43:52.192Z,3.00
2022-08-03T23:47:46.743Z,2.53
2022-08-03T23:51:47.522Z,2.78
2022-08-03T23:55:57.426Z,3.45
2022-08-03T23:59:52.287Z,2.45
